首页
METAR-TAF:

METAR-TAF

机场 :

埃森博阿国际机场

安卡拉埃森博阿, 土耳其

纬度: 40-07N, 经度: 032-59E, 海拔: 953米

当前天气观测

该预报发布于45分钟前的11:50 UTC
风速11节,风向
温度 30°C
湿度 21%
气压 1012 hPa
能见度10公里或以上
少量云层高于4000英尺
散云层高于10000英尺

METAR: LTAC 181150Z 35011KT 9999 FEW040 SCT100 30/05 Q1012 NOSIG RMK RWY21L 34015KT 300V360 RWY03L 34010KT 310V010 RWY21R 35012KT 310V020

时间: 15:35 (12:35 UTC)

预报

该预报发布于1小时和55分钟前的10:40 UTC
预报有效从18日的 12点(UTC)到 19日的 12点(UTC)
风速2节,风向多变
能见度10公里或以上
散云层高于4000英尺
成为
从 18日的 18点(UTC)到 18日的 20点(UTC)
能见度10公里或以上
1500米以下无云,无积雨云
成为
从 19日的 06点(UTC)到 19日的 08点(UTC)
散云层高于4000英尺

TAF: LTAC 181040Z 1812/1912 VRB02KT 9999 SCT040 BECMG 1818/1820 CAVOK BECMG 1906/1908 SCT040

超过4000个机场的气象观测和天气预报(METAR&TAF报告)。

可查询的气象台以黄色和红色小点在地图上表示。

将鼠标移到小点上方,可查看气象台名称。

然后点击查看天气观测和预报。

如需切换地图:点击带黑十字的绿色按钮放大地图;点击带横线的绿色按钮缩小地图;或者点击绿色箭头查看邻近地区的地图。


METAR-TAF: